Terminal Aerodrome Forecast
Issued by NWS

Home | Current Version | Previous Version | Text Only | Print | Product List | Glossary On
Versions: 1 2 3 4 5 6 7 8 9 10 11 12 13 14
000
FTUS41 KBGM 282300
TAFELM
TAF
KELM 282326Z 2900/2924 29007KT P6SM OVC040
      TEMPO 2908/2912 OVC030
     FM292100 32008KT P6SM BKN045=

USA.gov is the U.S. government's official web portal to all federal, state and local government web resources and services.